Time;durP1;ratioP1;P1;durP2;ratioP2;P2;SDS_P1;SDS_P2;PMS_P1;PMS_P2;Temp;Humidity;BMP_temperature;BMP_pressure;BME280_temperature;BME280_humidity;BME280_pressure;Samples;Min_cycle;Max_cycle;Signal;HPM_P1;HPM_P2
2020/12/26 00:00:31;;;;;;;20.57;9.57;;;;;;;0.30;99.92;96815.81;5097254;28;20441;-80
2020/12/26 00:02:57;;;;;;;14.63;8.97;;;;;;;0.31;100.00;96811.97;5097664;28;20433;-80
2020/12/26 00:05:24;;;;;;;17.73;10.53;;;;;;;0.38;100.00;96808.94;5098214;28;20447;-80
2020/12/26 00:07:52;;;;;;;21.50;10.20;;;;;;;0.43;100.00;96810.22;5098861;28;20854;-78
2020/12/26 00:10:20;;;;;;;16.50;9.40;;;;;;;0.42;100.00;96819.34;5098866;28;20567;-79
2020/12/26 00:12:47;;;;;;;23.97;10.10;;;;;;;0.39;100.00;96814.97;5096664;28;20513;-78
2020/12/26 00:15:15;;;;;;;17.83;10.00;;;;;;;0.41;100.00;96823.19;5096702;28;20440;-79
2020/12/26 00:17:42;;;;;;;21.27;9.20;;;;;;;0.44;100.00;96816.97;5100759;28;20445;-83
2020/12/26 00:20:08;;;;;;;19.30;9.40;;;;;;;0.37;100.00;96814.72;5100996;28;20440;-81
2020/12/26 00:22:35;;;;;;;15.13;8.97;;;;;;;0.38;100.00;96806.28;5101335;28;20444;-81
2020/12/26 00:25:02;;;;;;;18.00;10.30;;;;;;;0.35;100.00;96801.16;5097433;28;20565;-80
2020/12/26 00:27:28;;;;;;;22.57;10.30;;;;;;;0.31;100.00;96801.38;5098130;28;20440;-80
2020/12/26 00:29:54;;;;;;;17.93;8.60;;;;;;;0.33;100.00;96806.19;5098779;28;20481;-79
2020/12/26 00:32:22;;;;;;;15.77;9.97;;;;;;;0.36;100.00;96790.09;5099574;28;20894;-80
2020/12/26 00:34:49;;;;;;;20.20;10.97;;;;;;;0.49;100.00;96795.84;5101560;28;20444;-83
2020/12/26 00:37:17;;;;;;;14.33;8.50;;;;;;;0.44;100.00;96799.13;5101524;28;20487;-80
2020/12/26 00:39:43;;;;;;;15.00;8.73;;;;;;;0.37;100.00;96793.47;5101941;28;20476;-80
2020/12/26 00:42:10;;;;;;;15.03;8.93;;;;;;;0.37;100.00;96796.13;5098575;28;20476;-79
2020/12/26 00:44:36;;;;;;;13.67;8.77;;;;;;;0.26;100.00;96799.34;5098676;28;20448;-79
2020/12/26 00:47:03;;;;;;;14.50;8.90;;;;;;;0.17;100.00;96804.03;5103635;28;20532;-82
2020/12/26 00:49:30;;;;;;;15.90;9.03;;;;;;;0.09;100.00;96819.59;5102538;28;20533;-80
2020/12/26 00:51:57;;;;;;;13.77;9.00;;;;;;;0.24;100.00;96815.00;5099652;28;20472;-79
2020/12/26 00:54:23;;;;;;;18.13;10.43;;;;;;;0.19;100.00;96820.22;5098723;28;20811;-79
2020/12/26 00:56:49;;;;;;;20.37;10.30;;;;;;;0.12;100.00;96823.25;5103756;28;20528;-82
2020/12/26 00:59:16;;;;;;;21.70;8.73;;;;;;;0.14;100.00;96818.94;5104383;28;20437;-81
2020/12/26 01:01:42;;;;;;;19.17;9.53;;;;;;;0.21;100.00;96823.16;5100144;28;20462;-79
2020/12/26 01:04:09;;;;;;;16.93;9.40;;;;;;;0.03;100.00;96823.34;5098432;28;20464;-79
2020/12/26 01:06:36;;;;;;;16.03;8.60;;;;;;;-0.12;100.00;96826.72;5099606;28;20843;-80
2020/12/26 01:09:03;;;;;;;15.43;8.70;;;;;;;-0.15;100.00;96832.19;5101604;28;20432;-80
2020/12/26 01:11:29;;;;;;;13.67;8.40;;;;;;;-0.16;100.00;96836.75;5100568;28;20488;-80
2020/12/26 01:13:56;;;;;;;19.20;9.07;;;;;;;-0.19;100.00;96832.38;5101070;28;20961;-81
2020/12/26 01:16:22;;;;;;;15.83;9.20;;;;;;;-0.21;100.00;96834.03;5101650;28;20509;-81
2020/12/26 01:18:48;;;;;;;14.53;9.00;;;;;;;-0.23;100.00;96837.16;5099875;28;20436;-79
2020/12/26 01:21:15;;;;;;;11.97;8.53;;;;;;;-0.24;100.00;96834.94;5100197;28;20452;-80
2020/12/26 01:23:42;;;;;;;13.60;8.63;;;;;;;-0.24;100.00;96835.69;5100154;28;20444;-80
2020/12/26 01:26:09;;;;;;;13.47;8.87;;;;;;;-0.25;100.00;96847.47;5098694;28;20436;-79
2020/12/26 01:28:35;;;;;;;24.50;11.37;;;;;;;-0.27;100.00;96844.53;5097805;28;20448;-79
2020/12/26 01:31:01;;;;;;;13.60;8.30;;;;;;;-0.37;100.00;96843.16;5098705;28;20890;-81
2020/12/26 01:33:28;;;;;;;16.07;9.50;;;;;;;-0.40;100.00;96840.66;5099377;28;20425;-79
2020/12/26 01:35:54;;;;;;;18.97;9.00;;;;;;;-0.35;100.00;96845.38;5098726;28;20478;-84
2020/12/26 01:38:20;;;;;;;14.10;8.80;;;;;;;-0.40;100.00;96851.28;5100248;28;20500;-82
2020/12/26 01:40:51;;;;;;;15.33;9.47;;;;;;;-0.43;100.00;96849.53;5105029;28;20459;-80
2020/12/26 01:43:18;;;;;;;16.77;9.77;;;;;;;-0.45;100.00;96849.28;5117549;28;20496;-82
2020/12/26 01:45:45;;;;;;;13.30;9.40;;;;;;;-0.47;100.00;96860.31;5119388;28;20450;-82
2020/12/26 01:48:15;;;;;;;15.27;9.40;;;;;;;-0.49;100.00;96859.31;5119265;28;20429;-83
2020/12/26 01:50:42;;;;;;;15.50;8.50;;;;;;;-0.50;100.00;96873.75;5118891;28;20546;-82
2020/12/26 01:53:11;;;;;;;14.93;9.00;;;;;;;-0.54;100.00;96865.97;5108023;28;20429;-79
2020/12/26 01:55:37;;;;;;;20.67;11.70;;;;;;;-0.59;100.00;96867.31;5096827;28;20440;-83
2020/12/26 01:58:05;;;;;;;17.50;9.60;;;;;;;-0.65;100.00;96881.66;5097017;28;20539;-84
2020/12/26 02:00:31;;;;;;;22.07;10.40;;;;;;;-0.68;100.00;96885.94;5097210;28;20436;-80
2020/12/26 02:02:57;;;;;;;23.20;13.13;;;;;;;-0.62;100.00;96884.13;5097766;28;20440;-80
2020/12/26 02:05:24;;;;;;;21.10;10.03;;;;;;;-0.40;100.00;96886.47;5098179;28;20444;-80
2020/12/26 02:07:50;;;;;;;25.93;11.00;;;;;;;-0.35;100.00;96887.78;5097550;28;20436;-79
2020/12/26 02:10:17;;;;;;;18.63;11.40;;;;;;;-0.32;100.00;96892.91;5097591;28;20476;-81
2020/12/26 02:12:43;;;;;;;23.50;11.43;;;;;;;-0.35;100.00;96895.72;5097252;28;20472;-82
2020/12/26 02:15:14;;;;;;;21.33;11.20;;;;;;;-0.22;100.00;96888.97;5100575;28;20451;-82
2020/12/26 02:17:41;;;;;;;22.30;11.97;;;;;;;-0.18;100.00;96891.44;5100253;28;20421;-82
2020/12/26 02:20:07;;;;;;;22.50;11.00;;;;;;;-0.19;100.00;96900.59;5100103;28;20448;-80
2020/12/26 02:22:34;;;;;;;22.40;12.47;;;;;;;-0.17;100.00;96901.59;5098615;28;20468;-83
2020/12/26 02:25:01;;;;;;;19.20;10.50;;;;;;;0.16;100.00;96898.09;5098865;28;20536;-82
2020/12/26 02:27:27;;;;;;;24.17;12.37;;;;;;;0.13;100.00;96897.06;5100426;28;20440;-82
2020/12/26 02:29:54;;;;;;;21.50;11.53;;;;;;;0.26;100.00;96892.22;5099943;28;20448;-82
2020/12/26 02:32:20;;;;;;;24.70;11.93;;;;;;;0.24;100.00;96891.22;5097619;28;21075;-80
2020/12/26 02:34:46;;;;;;;22.87;12.23;;;;;;;0.27;100.00;96892.94;5097356;28;20440;-79
2020/12/26 02:37:13;;;;;;;26.90;12.20;;;;;;;0.32;100.00;96885.06;5097782;28;20440;-80
2020/12/26 02:39:39;;;;;;;24.57;12.10;;;;;;;0.31;100.00;96888.94;5100365;28;20452;-80
2020/12/26 02:42:07;;;;;;;25.53;11.43;;;;;;;0.19;100.00;96889.91;5098605;28;20459;-80
2020/12/26 02:44:33;;;;;;;22.20;11.43;;;;;;;0.14;100.00;96893.22;5100677;28;20444;-82
2020/12/26 02:47:00;;;;;;;30.07;12.17;;;;;;;0.13;100.00;96889.09;5104283;28;20436;-79
2020/12/26 02:49:26;;;;;;;27.93;12.23;;;;;;;0.27;100.00;96887.63;5100678;28;20440;-79
2020/12/26 02:51:52;;;;;;;23.63;13.03;;;;;;;0.38;100.00;96893.13;5101139;28;20480;-79
2020/12/26 02:54:19;;;;;;;33.33;13.23;;;;;;;0.43;100.00;96887.19;5102686;28;20452;-81
2020/12/26 02:56:45;;;;;;;25.43;12.03;;;;;;;0.50;100.00;96895.47;5105064;28;20933;-81
2020/12/26 02:59:12;;;;;;;31.80;11.83;;;;;;;0.45;100.00;96900.72;5103656;28;20447;-82
2020/12/26 03:01:39;;;;;;;29.43;13.27;;;;;;;0.48;100.00;96902.44;5103560;28;20501;-82
2020/12/26 03:04:05;;;;;;;25.33;12.97;;;;;;;0.38;100.00;96895.75;5103245;28;20436;-81
2020/12/26 03:06:32;;;;;;;31.77;12.70;;;;;;;0.32;100.00;96901.00;5099274;28;20816;-79
2020/12/26 03:08:58;;;;;;;25.20;11.17;;;;;;;0.27;100.00;96899.00;5098660;28;20444;-79
2020/12/26 03:11:25;;;;;;;24.53;11.23;;;;;;;0.31;100.00;96901.47;5098992;28;20487;-79
2020/12/26 03:13:51;;;;;;;32.57;13.83;;;;;;;0.30;100.00;96900.00;5098705;28;20436;-83
2020/12/26 03:16:19;;;;;;;36.37;12.60;;;;;;;0.32;100.00;96895.69;5100794;28;20443;-83
2020/12/26 03:18:46;;;;;;;24.73;11.13;;;;;;;0.30;100.00;96900.00;5100824;28;20519;-83
2020/12/26 03:21:13;;;;;;;21.57;12.60;;;;;;;0.24;100.00;96896.50;5099959;28;20529;-83
2020/12/26 03:23:39;;;;;;;24.57;11.07;;;;;;;0.27;100.00;96900.91;5100688;28;20433;-83
2020/12/26 03:26:05;;;;;;;20.77;10.47;;;;;;;0.37;100.00;96903.03;5099621;28;20444;-80
2020/12/26 03:28:32;;;;;;;27.83;12.23;;;;;;;0.35;100.00;96905.38;5102117;28;20562;-81
2020/12/26 03:30:58;;;;;;;22.17;9.57;;;;;;;0.31;100.00;96912.06;5101149;28;20541;-81
2020/12/26 03:33:25;;;;;;;24.93;10.63;;;;;;;0.32;100.00;96910.88;5099726;28;20473;-83
2020/12/26 03:35:52;;;;;;;26.07;12.27;;;;;;;0.27;100.00;96908.88;5099549;28;20475;-83
2020/12/26 03:38:18;;;;;;;20.90;10.20;;;;;;;0.29;100.00;96917.09;5099446;28;20429;-82
2020/12/26 03:40:44;;;;;;;19.67;7.80;;;;;;;0.41;100.00;96911.50;5099084;28;20433;-81
2020/12/26 03:43:11;;;;;;;18.60;10.50;;;;;;;0.30;100.00;96913.25;5099477;28;20528;-81
2020/12/26 03:45:37;;;;;;;21.23;9.93;;;;;;;0.30;100.00;96910.59;5100012;28;20925;-81
2020/12/26 03:48:03;;;;;;;20.17;10.20;;;;;;;0.33;100.00;96922.97;5099154;28;20433;-83
2020/12/26 03:50:31;;;;;;;21.47;9.70;;;;;;;0.45;100.00;96922.69;5097745;28;20518;-82
2020/12/26 03:52:57;;;;;;;17.87;8.60;;;;;;;0.54;100.00;96922.59;5098086;28;20466;-83
2020/12/26 03:55:23;;;;;;;24.03;9.63;;;;;;;0.61;99.24;96926.06;5096861;28;20925;-83
2020/12/26 03:57:50;;;;;;;17.87;9.27;;;;;;;0.58;99.03;96932.28;5098850;28;20535;-83
2020/12/26 04:00:16;;;;;;;16.10;8.13;;;;;;;0.49;98.76;96931.19;5098943;28;20528;-83
2020/12/26 04:02:42;;;;;;;10.70;6.53;;;;;;;0.43;98.79;96930.38;5114289;28;20456;-82
2020/12/26 04:05:09;;;;;;;15.33;8.07;;;;;;;0.59;98.09;96923.88;5101797;28;20801;-79
2020/12/26 04:07:36;;;;;;;22.33;9.10;;;;;;;0.61;97.71;96931.38;5097285;28;20497;-79
2020/12/26 04:10:04;;;;;;;14.63;6.93;;;;;;;0.67;97.12;96922.28;5098769;28;20497;-80
2020/12/26 04:12:30;;;;;;;22.10;8.40;;;;;;;0.58;97.42;96925.06;5098839;28;20471;-80
2020/12/26 04:14:56;;;;;;;16.97;8.70;;;;;;;0.59;97.58;96918.56;5097747;28;21099;-79
2020/12/26 04:17:23;;;;;;;19.53;8.63;;;;;;;0.62;97.92;96924.88;5097301;28;20498;-78
2020/12/26 04:19:50;;;;;;;16.90;7.80;;;;;;;0.54;98.02;96927.16;5097616;28;20471;-83
2020/12/26 04:22:16;;;;;;;22.67;9.67;;;;;;;0.44;98.79;96923.13;5100054;28;20444;-79
2020/12/26 04:24:43;;;;;;;13.17;7.27;;;;;;;0.44;98.98;96925.78;5097238;28;20455;-79
2020/12/26 04:27:10;;;;;;;17.63;8.20;;;;;;;0.48;99.59;96932.38;5097307;28;20937;-80
2020/12/26 04:29:36;;;;;;;24.03;8.80;;;;;;;0.52;99.00;96937.50;5099401;28;20497;-80
2020/12/26 04:32:03;;;;;;;21.33;9.13;;;;;;;0.50;99.59;96935.28;5098855;28;20488;-80
2020/12/26 04:34:29;;;;;;;22.00;10.67;;;;;;;0.49;99.09;96928.53;5098565;28;20937;-80
2020/12/26 04:36:56;;;;;;;19.80;9.10;;;;;;;0.53;99.48;96933.66;5098658;28;21028;-80
2020/12/26 04:39:22;;;;;;;24.07;9.43;;;;;;;0.42;99.28;96928.91;5098836;28;20448;-79
2020/12/26 04:41:49;;;;;;;27.83;9.90;;;;;;;0.44;99.62;96933.75;5098279;28;20482;-80
2020/12/26 04:44:17;;;;;;;19.03;9.03;;;;;;;0.45;99.66;96925.34;5099211;28;20535;-82
2020/12/26 04:46:44;;;;;;;19.63;9.13;;;;;;;0.44;99.94;96933.75;5099339;28;20448;-83
2020/12/26 04:49:12;;;;;;;21.13;9.20;;;;;;;0.47;100.00;96940.81;5099438;28;20464;-83
2020/12/26 04:51:40;;;;;;;18.03;10.17;;;;;;;0.52;99.96;96943.56;5099279;28;21000;-83
2020/12/26 04:54:11;;;;;;;15.53;9.17;;;;;;;0.60;99.89;96941.25;5098917;28;20971;-80
2020/12/26 04:56:43;;;;;;;23.50;10.63;;;;;;;0.54;99.64;96935.13;5098636;28;20548;-80
2020/12/26 04:59:11;;;;;;;19.87;9.43;;;;;;;0.57;99.69;96930.81;5098657;28;20437;-80
2020/12/26 05:01:40;;;;;;;18.87;9.53;;;;;;;0.62;99.94;96938.88;5098367;28;20551;-80
2020/12/26 05:04:06;;;;;;;25.43;10.63;;;;;;;0.53;100.00;96942.34;5098723;28;20445;-80
2020/12/26 05:06:48;;;;;;;23.03;12.10;;;;;;;0.45;100.00;96946.56;5097466;28;20449;-79
2020/12/26 05:09:16;;;;;;;26.17;10.93;;;;;;;0.43;100.00;96948.22;5096385;28;20519;-79
2020/12/26 05:11:53;;;;;;;21.67;10.13;;;;;;;0.49;100.00;96949.78;5097001;28;20485;-83
2020/12/26 05:14:21;;;;;;;21.23;10.47;;;;;;;0.56;100.00;96950.59;5101091;28;20785;-83
2020/12/26 05:16:47;;;;;;;29.20;13.33;;;;;;;0.54;100.00;96948.38;5119875;28;20459;-79
2020/12/26 05:19:14;;;;;;;21.90;11.33;;;;;;;0.54;100.00;96951.03;5119842;28;20413;-80
2020/12/26 05:21:40;;;;;;;28.90;12.90;;;;;;;0.54;100.00;96959.75;5119682;28;20468;-82
2020/12/26 05:24:07;;;;;;;22.73;11.23;;;;;;;0.52;100.00;96958.75;5119830;28;20438;-82
2020/12/26 05:26:42;;;;;;;23.50;11.80;;;;;;;0.55;100.00;96957.81;5108025;28;20433;-80
2020/12/26 05:29:09;;;;;;;23.17;11.67;;;;;;;0.57;100.00;96955.44;5095535;28;20920;-83
2020/12/26 05:31:54;;;;;;;28.13;12.63;;;;;;;0.54;100.00;96951.78;5095110;28;20481;-80
2020/12/26 05:34:22;;;;;;;31.10;12.87;;;;;;;0.60;100.00;96951.13;5096113;28;20437;-80
2020/12/26 05:36:48;;;;;;;24.97;12.60;;;;;;;0.63;100.00;96945.63;5096431;28;20520;-79
2020/12/26 05:39:15;;;;;;;28.33;15.13;;;;;;;0.61;100.00;96948.03;5097405;28;20432;-83
2020/12/26 05:41:44;;;;;;;36.10;13.87;;;;;;;0.69;100.00;96951.06;5096941;28;20452;-79
2020/12/26 05:44:11;;;;;;;25.87;14.80;;;;;;;0.71;100.00;96952.06;5097310;28;20445;-79
2020/12/26 05:46:37;;;;;;;29.40;14.20;;;;;;;0.68;100.00;96946.94;5096527;28;20440;-79
2020/12/26 05:49:25;;;;;;;32.73;14.93;;;;;;;0.74;100.00;96950.41;5096371;28;20433;-79
2020/12/26 05:51:53;;;;;;;31.50;14.30;;;;;;;0.74;100.00;96945.81;5100304;28;20518;-81
2020/12/26 05:54:20;;;;;;;24.70;14.03;;;;;;;0.76;100.00;96946.09;5101296;28;20441;-81
2020/12/26 05:56:47;;;;;;;34.50;13.97;;;;;;;0.82;99.88;96944.25;5098709;28;20436;-79
2020/12/26 05:59:24;;;;;;;25.43;12.33;;;;;;;0.80;100.00;96954.59;5096454;28;20444;-78
2020/12/26 06:01:50;;;;;;;24.87;13.70;;;;;;;0.74;99.88;96945.81;5096722;28;20460;-82
2020/12/26 06:04:20;;;;;;;36.37;14.93;;;;;;;0.75;100.00;96943.91;5099315;28;20559;-83
2020/12/26 06:06:51;;;;;;;30.00;12.80;;;;;;;0.63;100.00;96942.28;5099339;28;20444;-83
2020/12/26 06:09:20;;;;;;;24.87;12.27;;;;;;;0.60;100.00;96948.47;5099430;28;20412;-80
2020/12/26 06:11:47;;;;;;;28.17;13.27;;;;;;;0.52;100.00;96948.13;5097115;28;20503;-80
2020/12/26 06:14:18;;;;;;;28.37;14.53;;;;;;;0.51;100.00;96947.38;5097471;28;20451;-80
2020/12/26 06:16:49;;;;;;;26.67;12.80;;;;;;;0.54;100.00;96943.06;5097489;28;21001;-80
2020/12/26 06:19:18;;;;;;;21.40;12.50;;;;;;;0.44;100.00;96944.34;5098107;28;20503;-80
2020/12/26 06:21:50;;;;;;;27.00;14.10;;;;;;;0.37;100.00;96948.13;5101592;28;20452;-80
2020/12/26 06:24:17;;;;;;;31.57;14.00;;;;;;;0.28;100.00;96961.47;5101189;28;20425;-79
2020/12/26 06:26:46;;;;;;;25.50;13.60;;;;;;;0.25;100.00;96962.38;5099727;28;20436;-80
2020/12/26 06:29:17;;;;;;;31.00;14.20;;;;;;;0.20;100.00;96968.31;5099906;28;20433;-79
2020/12/26 06:31:46;;;;;;;32.97;13.73;;;;;;;0.11;100.00;96963.09;5099795;28;20491;-79
2020/12/26 06:34:17;;;;;;;37.07;17.00;;;;;;;0.04;100.00;96954.75;5100183;28;20440;-79
2020/12/26 06:36:44;;;;;;;29.07;13.30;;;;;;;-0.03;100.00;96950.53;5101113;28;20516;-83
2020/12/26 06:39:28;;;;;;;31.63;15.50;;;;;;;-0.10;100.00;96956.94;5102017;28;20428;-83
2020/12/26 06:42:18;;;;;;;29.50;13.57;;;;;;;-0.11;100.00;96963.44;5101295;28;21020;-83
2020/12/26 06:44:46;;;;;;;39.47;14.00;;;;;;;-0.15;100.00;96959.47;5080698;28;20855;-83
2020/12/26 06:47:34;;;;;;;28.57;14.30;;;;;;;-0.14;100.00;96971.56;5100677;28;20444;-82
2020/12/26 06:50:16;;;;;;;23.13;12.90;;;;;;;-0.21;100.00;96969.25;5101365;28;20460;-83
2020/12/26 06:52:42;;;;;;;24.87;12.87;;;;;;;-0.32;100.00;96967.13;5110260;28;20460;-82
2020/12/26 06:55:10;;;;;;;24.07;13.67;;;;;;;-0.32;100.00;96974.34;5099415;28;20526;-78
2020/12/26 06:57:38;;;;;;;25.40;12.90;;;;;;;-0.35;100.00;96973.31;5103293;28;20437;-81
2020/12/26 07:00:26;;;;;;;27.77;14.80;;;;;;;-0.36;100.00;96971.13;5100080;28;20463;-79
2020/12/26 07:03:29;;;;;;;28.20;13.10;;;;;;;-0.32;100.00;96974.34;5098824;28;20618;-79
2020/12/26 07:05:57;;;;;;;32.23;13.73;;;;;;;-0.38;100.00;96968.19;5099124;28;20511;-79
2020/12/26 07:08:31;;;;;;;29.07;13.47;;;;;;;-0.42;100.00;96971.00;5098404;28;20442;-79
2020/12/26 07:11:02;;;;;;;33.57;14.50;;;;;;;-0.45;100.00;96977.22;5097996;28;20487;-79
2020/12/26 07:13:51;;;;;;;24.17;13.90;;;;;;;-0.34;100.00;96982.72;5098619;28;20425;-78
2020/12/26 07:16:39;;;;;;;31.90;14.90;;;;;;;-0.38;100.00;96984.84;5098208;28;20450;-79
2020/12/26 07:19:25;;;;;;;29.07;13.50;;;;;;;-0.37;100.00;96988.19;5099920;28;20853;-80
2020/12/26 07:21:52;;;;;;;25.53;13.87;;;;;;;-0.36;100.00;96984.38;5100256;28;20467;-80
2020/12/26 07:24:23;;;;;;;29.27;14.10;;;;;;;-0.32;100.00;96993.63;5100943;28;20515;-80
2020/12/26 07:26:50;;;;;;;24.90;14.13;;;;;;;-0.34;100.00;96995.97;5100966;28;20451;-80
2020/12/26 07:29:24;;;;;;;30.50;15.50;;;;;;;-0.31;100.00;96994.34;5101069;28;20937;-80
2020/12/26 07:31:50;;;;;;;33.00;14.90;;;;;;;-0.29;100.00;96997.28;5099700;28;21015;-80
2020/12/26 07:34:36;;;;;;;37.27;15.53;;;;;;;-0.24;100.00;97001.97;5100577;28;20429;-80
2020/12/26 07:37:02;;;;;;;35.27;14.47;;;;;;;-0.30;100.00;96998.47;5100146;28;20451;-80
2020/12/26 07:39:29;;;;;;;34.57;16.67;;;;;;;-0.24;100.00;96991.34;5102949;28;20485;-80
2020/12/26 07:41:57;;;;;;;31.27;15.40;;;;;;;-0.12;100.00;96991.13;5113512;28;20460;-80
2020/12/26 07:44:28;;;;;;;31.97;14.57;;;;;;;-0.13;100.00;96983.63;5114083;28;20892;-80
2020/12/26 07:46:56;;;;;;;30.80;14.60;;;;;;;-0.13;100.00;96992.31;5118451;28;20451;-80
2020/12/26 07:49:22;;;;;;;27.57;13.30;;;;;;;-0.11;100.00;96992.59;5102712;28;20436;-80
2020/12/26 07:52:05;;;;;;;34.40;15.17;;;;;;;-0.13;100.00;96987.03;5101042;28;20492;-80
2020/12/26 07:54:32;;;;;;;32.70;15.60;;;;;;;-0.07;100.00;96987.84;5101335;28;20528;-80
2020/12/26 07:56:59;;;;;;;25.13;13.77;;;;;;;0.03;100.00;96985.13;5102161;28;20483;-80
2020/12/26 07:59:26;;;;;;;32.37;14.60;;;;;;;0.12;100.00;96988.44;5101962;28;20929;-83
2020/12/26 08:01:53;;;;;;;30.07;14.27;;;;;;;0.21;100.00;96982.31;5100997;28;20457;-83
2020/12/26 08:04:19;;;;;;;30.97;15.23;;;;;;;0.27;100.00;96978.59;5101257;28;20945;-83
2020/12/26 08:06:47;;;;;;;28.60;13.63;;;;;;;0.47;100.00;96981.34;5100909;28;20447;-84
2020/12/26 08:09:14;;;;;;;27.80;12.63;;;;;;;0.51;100.00;96973.94;5100363;28;20490;-80
2020/12/26 08:11:40;;;;;;;24.60;13.13;;;;;;;0.49;100.00;96980.91;5100184;28;20509;-81
2020/12/26 08:14:08;;;;;;;27.50;15.70;;;;;;;0.46;100.00;96979.16;5099837;28;20549;-80
2020/12/26 08:16:35;;;;;;;24.73;12.30;;;;;;;0.49;100.00;96978.97;5100565;28;20440;-80
2020/12/26 08:19:01;;;;;;;23.13;12.13;;;;;;;0.55;100.00;96976.41;5101919;28;20467;-80
2020/12/26 08:21:29;;;;;;;30.30;13.47;;;;;;;0.59;100.00;96979.63;5101910;28;20467;-80
2020/12/26 08:23:56;;;;;;;25.50;12.07;;;;;;;0.67;100.00;96980.72;5099670;28;20444;-80
2020/12/26 08:26:23;;;;;;;31.43;11.97;;;;;;;0.65;99.32;96977.78;5099097;28;20441;-82
2020/12/26 08:28:51;;;;;;;23.27;12.47;;;;;;;0.78;99.51;96964.97;5098962;28;20436;-82
2020/12/26 08:31:22;;;;;;;27.93;14.37;;;;;;;0.93;98.66;96968.34;5098861;28;20488;-82
2020/12/26 08:33:54;;;;;;;26.37;12.90;;;;;;;0.93;98.30;96970.25;5099302;28;20907;-82
2020/12/26 08:36:28;;;;;;;25.77;12.80;;;;;;;0.94;98.01;96964.47;5099494;28;20431;-79
2020/12/26 08:38:57;;;;;;;26.60;13.37;;;;;;;0.97;97.26;96965.50;5102278;28;20493;-80
2020/12/26 08:41:25;;;;;;;23.27;13.50;;;;;;;1.07;96.70;96964.16;5102198;28;20548;-80
2020/12/26 08:43:52;;;;;;;18.60;9.77;;;;;;;1.10;96.71;96968.56;5101304;28;21008;-82
2020/12/26 08:46:22;;;;;;;20.43;11.30;;;;;;;1.07;96.11;96972.88;5100166;28;20524;-83
2020/12/26 08:48:49;;;;;;;22.80;12.20;;;;;;;0.95;96.22;96967.84;5102160;28;20450;-81
2020/12/26 08:51:20;;;;;;;25.03;12.83;;;;;;;0.92;96.60;96977.47;5106502;28;20479;-81
2020/12/26 08:53:48;;;;;;;22.10;12.23;;;;;;;0.94;96.84;96971.72;5120260;28;20425;-81
2020/12/26 08:56:14;;;;;;;27.57;12.53;;;;;;;1.01;96.62;96977.38;5120437;28;20417;-82
2020/12/26 08:58:48;;;;;;;21.23;11.70;;;;;;;1.04;96.30;96973.78;5120258;28;20460;-80
2020/12/26 09:01:15;;;;;;;26.60;13.10;;;;;;;1.06;96.67;96982.06;5120153;28;20512;-80
2020/12/26 09:03:48;;;;;;;23.03;11.77;;;;;;;1.12;96.53;96984.78;5107840;28;20460;-81
2020/12/26 09:06:15;;;;;;;18.30;11.33;;;;;;;1.17;96.13;96994.03;5118289;28;20417;-81
2020/12/26 09:08:41;;;;;;;20.10;11.53;;;;;;;1.36;95.61;96992.59;5119905;28;20479;-81
2020/12/26 09:11:10;;;;;;;22.27;11.73;;;;;;;1.41;95.12;96976.00;5120000;28;20542;-79
2020/12/26 09:13:38;;;;;;;24.07;11.97;;;;;;;1.47;95.13;96988.16;5119775;28;20409;-82
2020/12/26 09:16:07;;;;;;;24.73;11.73;;;;;;;1.62;94.27;96993.44;5101671;28;20459;-79
2020/12/26 09:18:39;;;;;;;20.60;11.67;;;;;;;1.54;93.82;96987.03;5097141;28;20445;-80
2020/12/26 09:21:08;;;;;;;19.70;11.40;;;;;;;1.53;93.98;96993.56;5095986;28;20461;-80
2020/12/26 09:23:36;;;;;;;18.90;10.50;;;;;;;1.66;93.83;96993.25;5095775;28;20531;-81
2020/12/26 09:26:14;;;;;;;19.03;10.73;;;;;;;1.70;93.60;96997.16;5096091;28;20464;-81
2020/12/26 09:28:44;;;;;;;19.00;10.47;;;;;;;1.78;93.69;97006.22;5097238;28;20474;-81
2020/12/26 09:31:11;;;;;;;20.03;10.33;;;;;;;1.87;93.65;97019.41;5098800;28;20492;-81
2020/12/26 09:33:38;;;;;;;21.27;11.00;;;;;;;1.86;93.30;97015.25;5098801;28;20508;-81
2020/12/26 09:36:05;;;;;;;16.83;10.00;;;;;;;1.97;92.78;97012.72;5100610;28;20447;-82
2020/12/26 09:38:32;;;;;;;20.60;9.50;;;;;;;2.05;91.72;97018.38;5099302;28;20531;-80
2020/12/26 09:41:09;;;;;;;17.40;9.50;;;;;;;1.95;92.26;97020.44;5107878;28;20461;-79
2020/12/26 09:43:36;;;;;;;13.27;8.23;;;;;;;2.06;91.72;97031.25;5114968;28;20417;-79
2020/12/26 09:46:02;;;;;;;13.67;9.33;;;;;;;2.00;91.40;97022.47;5114908;28;20468;-83
2020/12/26 09:48:29;;;;;;;20.00;9.43;;;;;;;2.05;92.18;97024.44;5115055;28;20421;-83
2020/12/26 09:50:55;;;;;;;18.30;10.70;;;;;;;2.20;91.19;97024.34;5116065;28;20494;-81
2020/12/26 09:53:21;;;;;;;14.73;8.60;;;;;;;2.19;91.14;97022.19;5109320;28;20424;-82
2020/12/26 09:55:49;;;;;;;17.10;10.03;;;;;;;2.29;90.84;97021.56;5103555;28;20433;-82
2020/12/26 09:58:15;;;;;;;17.97;8.43;;;;;;;2.32;90.27;97022.56;5103451;28;20442;-82
2020/12/26 10:00:41;;;;;;;14.30;8.30;;;;;;;2.48;90.05;97021.97;5100685;28;20447;-84
2020/12/26 10:03:08;;;;;;;20.10;8.97;;;;;;;2.43;89.92;97026.06;5098634;28;20448;-78
2020/12/26 10:05:34;;;;;;;15.83;8.87;;;;;;;2.39;90.10;97024.81;5095655;28;20452;-78
2020/12/26 10:08:00;;;;;;;16.03;9.87;;;;;;;2.61;89.62;97011.69;5095309;28;20519;-78
2020/12/26 10:10:27;;;;;;;16.10;9.10;;;;;;;2.57;89.45;97006.59;5095207;28;20437;-79
2020/12/26 10:12:54;;;;;;;15.30;8.57;;;;;;;2.66;88.35;97008.38;5095568;28;20436;-79
2020/12/26 10:15:20;;;;;;;14.20;8.17;;;;;;;2.73;87.78;97013.25;5096926;28;20497;-78
2020/12/26 10:17:47;;;;;;;18.17;10.10;;;;;;;2.80;87.42;97020.09;5095055;28;20433;-78
2020/12/26 10:20:13;;;;;;;16.03;9.40;;;;;;;2.89;87.30;97012.69;5095323;28;20809;-79
2020/12/26 10:22:39;;;;;;;13.07;7.73;;;;;;;2.85;87.70;97017.47;5095048;28;21045;-78
2020/12/26 10:25:06;;;;;;;18.73;8.20;;;;;;;2.90;87.41;97013.41;5095299;28;20860;-78
2020/12/26 10:27:32;;;;;;;14.23;8.67;;;;;;;2.95;87.04;97021.44;5098897;28;20440;-81
2020/12/26 10:29:59;;;;;;;18.93;8.40;;;;;;;3.05;86.64;97014.00;5101657;28;20444;-82
2020/12/26 10:32:25;;;;;;;12.40;6.03;;;;;;;3.20;84.44;97003.94;5095548;28;20484;-79
2020/12/26 10:34:52;;;;;;;11.60;7.90;;;;;;;3.32;83.63;97002.09;5096447;28;20451;-83
2020/12/26 10:37:19;;;;;;;14.00;6.43;;;;;;;3.37;83.34;97007.47;5098880;28;20869;-79
2020/12/26 10:39:46;;;;;;;14.67;7.47;;;;;;;3.31;83.96;97011.28;5095340;28;20444;-79
2020/12/26 10:42:13;;;;;;;11.60;7.27;;;;;;;3.31;83.92;97000.63;5097098;28;20538;-81
2020/12/26 10:44:39;;;;;;;10.27;7.00;;;;;;;3.34;83.92;96991.69;5100268;28;20936;-81
2020/12/26 10:47:06;;;;;;;13.40;7.80;;;;;;;3.42;83.53;96990.03;5100844;28;20505;-82
2020/12/26 10:49:33;;;;;;;13.40;5.97;;;;;;;3.54;82.90;96994.94;5099248;28;20441;-82
2020/12/26 10:51:59;;;;;;;9.23;5.47;;;;;;;3.52;80.50;96986.69;5098137;28;20984;-83
2020/12/26 10:54:25;;;;;;;8.67;5.40;;;;;;;3.53;79.72;96992.75;5097945;28;20432;-83
2020/12/26 10:56:52;;;;;;;10.93;5.00;;;;;;;3.44;80.41;96993.69;5097740;28;20831;-83
2020/12/26 10:59:18;;;;;;;10.63;5.53;;;;;;;3.54;80.07;96992.28;5099541;28;20497;-81
2020/12/26 11:01:46;;;;;;;9.53;5.13;;;;;;;3.55;79.08;96983.06;5099142;28;20525;-81
2020/12/26 11:04:13;;;;;;;11.83;5.07;;;;;;;3.57;78.18;96980.66;5099038;28;20437;-81
2020/12/26 11:06:40;;;;;;;8.50;5.60;;;;;;;3.54;78.65;96970.94;5103111;28;20941;-81
2020/12/26 11:09:06;;;;;;;12.73;6.67;;;;;;;3.60;79.23;96970.97;5103008;28;20837;-83
2020/12/26 11:11:32;;;;;;;11.80;6.17;;;;;;;3.56;79.22;96962.47;5102274;28;20487;-78
2020/12/26 11:13:59;;;;;;;8.33;5.90;;;;;;;3.58;80.40;96957.38;5098621;28;20451;-78
2020/12/26 11:16:27;;;;;;;10.00;5.23;;;;;;;3.81;79.36;96960.88;5097572;28;21039;-79
2020/12/26 11:18:53;;;;;;;10.13;5.90;;;;;;;3.85;79.05;96948.78;5098504;28;20531;-78
2020/12/26 11:21:21;;;;;;;10.03;5.73;;;;;;;3.78;79.33;96951.88;5099722;28;20463;-79
2020/12/26 11:23:48;;;;;;;12.00;6.37;;;;;;;3.79;79.33;96943.38;5097541;28;20837;-80
2020/12/26 11:26:14;;;;;;;8.83;6.10;;;;;;;3.88;79.84;96941.75;5103791;28;20805;-80